createdAt,value
2019-04-20T00:00:09.914Z,13.70
2019-04-20T00:01:47.262Z,13.69
2019-04-20T00:03:29.820Z,13.67
2019-04-20T00:05:03.444Z,13.66
2019-04-20T00:06:46.338Z,13.73
2019-04-20T00:08:21.486Z,13.67
2019-04-20T00:10:07.597Z,13.60
2019-04-20T00:11:45.875Z,13.59
2019-04-20T00:13:22.942Z,13.57
2019-04-20T00:14:49.951Z,13.59
2019-04-20T00:16:27.229Z,13.56
2019-04-20T00:18:06.686Z,13.60
2019-04-20T00:19:45.635Z,13.59
2019-04-20T00:21:50.630Z,13.67
2019-04-20T00:23:56.593Z,13.63
2019-04-20T00:26:10.458Z,13.58
2019-04-20T00:28:12.972Z,13.52
2019-04-20T00:29:53.355Z,13.47
2019-04-20T00:31:24.839Z,13.51
2019-04-20T00:32:55.606Z,13.51
2019-04-20T00:34:30.480Z,13.45
2019-04-20T00:36:03.161Z,13.45
2019-04-20T00:37:43.038Z,13.40
2019-04-20T00:39:21.885Z,13.41
2019-04-20T00:41:02.787Z,13.37
2019-04-20T00:42:42.208Z,13.37
2019-04-20T00:44:17.122Z,13.40
2019-04-20T00:45:58.548Z,13.43
2019-04-20T00:47:37.194Z,13.41
2019-04-20T00:49:22.855Z,13.38
2019-04-20T00:50:57.506Z,13.33
2019-04-20T00:52:51.772Z,13.38
2019-04-20T00:53:58.763Z,13.36
2019-04-20T00:55:33.794Z,13.36
2019-04-20T00:57:20.384Z,13.38
2019-04-20T00:58:56.791Z,13.37
2019-04-20T01:00:42.517Z,13.37
2019-04-20T01:02:19.225Z,13.36
2019-04-20T01:04:02.239Z,13.32
2019-04-20T01:05:43.281Z,13.25
2019-04-20T01:07:37.462Z,13.32
2019-04-20T01:09:14.333Z,13.30
2019-04-20T01:10:54.172Z,13.32
2019-04-20T01:12:30.280Z,13.25
2019-04-20T01:14:07.914Z,13.26
2019-04-20T01:15:47.161Z,13.26
2019-04-20T01:17:17.800Z,13.31
2019-04-20T01:18:54.513Z,13.26
2019-04-20T01:20:29.956Z,13.25
2019-04-20T01:22:11.015Z,13.22
2019-04-20T01:23:50.802Z,13.22
2019-04-20T01:25:27.054Z,13.25
2019-04-20T01:27:03.483Z,13.23
2019-04-20T01:28:51.120Z,13.25
2019-04-20T01:30:25.304Z,13.18
2019-04-20T01:32:08.003Z,13.17
2019-04-20T01:33:44.499Z,13.18
2019-04-20T01:35:24.778Z,13.24
2019-04-20T01:37:00.644Z,13.21
2019-04-20T01:38:40.037Z,13.21
2019-04-20T01:40:04.423Z,13.17
2019-04-20T01:41:39.323Z,13.20
2019-04-20T01:43:18.352Z,13.12
2019-04-20T01:44:56.675Z,13.05
2019-04-20T01:46:32.174Z,13.01
2019-04-20T01:48:08.815Z,12.98
2019-04-20T01:49:47.772Z,12.93
2019-04-20T01:51:27.163Z,13.00
2019-04-20T01:53:12.797Z,12.90
2019-04-20T01:54:57.989Z,13.01
2019-04-20T01:56:31.454Z,12.92
2019-04-20T01:58:17.854Z,13.01
2019-04-20T01:59:51.762Z,12.91
2019-04-20T02:01:42.463Z,13.01
2019-04-20T02:03:46.694Z,12.91
2019-04-20T02:05:24.945Z,12.93
2019-04-20T02:06:59.675Z,12.91
2019-04-20T02:08:34.373Z,12.85
2019-04-20T02:10:20.028Z,12.82
2019-04-20T02:12:15.436Z,12.71
2019-04-20T02:14:04.841Z,12.67
2019-04-20T02:15:48.532Z,12.54
2019-04-20T02:17:31.230Z,12.53
2019-04-20T02:19:13.771Z,12.49
2019-04-20T02:20:54.517Z,12.43
2019-04-20T02:22:30.595Z,12.37
2019-04-20T02:23:57.273Z,12.41
2019-04-20T02:25:29.053Z,12.48
2019-04-20T02:27:06.184Z,12.46
2019-04-20T02:29:06.053Z,12.40
2019-04-20T02:32:23.347Z,12.51
2019-04-20T02:36:21.135Z,12.53
2019-04-20T02:39:48.486Z,12.43
2019-04-20T02:41:17.457Z,12.53
2019-04-20T02:42:59.876Z,12.51
2019-04-20T02:46:07.889Z,12.53
2019-04-20T02:47:45.608Z,12.51
2019-04-20T02:50:59.008Z,12.46
2019-04-20T02:52:49.248Z,12.45
2019-04-20T02:57:51.095Z,12.44
2019-04-20T02:59:25.082Z,12.43
2019-04-20T03:00:35.564Z,12.41
2019-04-20T03:02:06.059Z,12.38
2019-04-20T03:03:32.803Z,12.36
2019-04-20T03:05:12.422Z,12.32
2019-04-20T03:06:55.011Z,12.27
2019-04-20T03:08:33.053Z,12.29
2019-04-20T03:10:15.592Z,12.23
2019-04-20T03:12:02.193Z,12.25
2019-04-20T03:13:28.297Z,12.13
2019-04-20T03:14:55.282Z,12.05
2019-04-20T03:16:35.776Z,12.11
2019-04-20T03:18:13.837Z,12.03
2019-04-20T03:19:51.294Z,11.99
2019-04-20T03:21:32.812Z,11.87
2019-04-20T03:24:50.111Z,11.72
2019-04-20T03:26:21.173Z,11.61
2019-04-20T03:28:05.142Z,11.59
2019-04-20T03:29:56.772Z,11.56
2019-04-20T03:36:34.328Z,11.19
2019-04-20T03:38:09.247Z,11.17
2019-04-20T03:39:38.868Z,11.05
2019-04-20T03:41:11.108Z,10.95
2019-04-20T03:42:37.144Z,10.81
2019-04-20T03:44:17.895Z,10.76
2019-04-20T03:45:56.164Z,10.63
2019-04-20T03:47:35.882Z,10.53
2019-04-20T03:49:20.255Z,10.46
2019-04-20T03:50:56.708Z,10.41
2019-04-20T03:52:51.397Z,10.35
2019-04-20T03:54:39.441Z,10.39
2019-04-20T03:56:35.126Z,10.36
2019-04-20T03:58:24.424Z,10.20
2019-04-20T04:00:22.113Z,10.10
2019-04-20T04:02:21.823Z,10.03
2019-04-20T04:04:01.450Z,9.96
2019-04-20T04:05:50.925Z,9.84
2019-04-20T04:07:22.807Z,9.81
2019-04-20T04:09:07.385Z,9.76
2019-04-20T04:10:56.103Z,9.68
2019-04-20T04:12:49.843Z,9.57
2019-04-20T04:14:25.981Z,9.50
2019-04-20T04:16:08.820Z,9.44
2019-04-20T04:17:44.740Z,9.42
2019-04-20T04:19:25.223Z,9.36
2019-04-20T04:21:02.507Z,9.29
2019-04-20T04:22:51.502Z,9.26
2019-04-20T04:24:26.085Z,9.20
2019-04-20T04:26:10.122Z,9.18
2019-04-20T04:27:40.663Z,9.18
2019-04-20T04:29:28.831Z,9.12
2019-04-20T04:31:05.095Z,9.02
2019-04-20T04:33:08.611Z,8.89
2019-04-20T04:34:20.577Z,8.82
2019-04-20T04:35:53.804Z,8.95
2019-04-20T04:37:33.824Z,9.05
2019-04-20T04:39:15.060Z,9.03
2019-04-20T04:41:04.969Z,9.06
2019-04-20T04:42:28.167Z,9.22
2019-04-20T04:44:03.093Z,9.20
2019-04-20T04:45:26.563Z,9.25
2019-04-20T04:47:04.372Z,9.27
2019-04-20T04:48:41.098Z,9.21
2019-04-20T04:50:18.298Z,9.24
2019-04-20T04:52:00.214Z,9.27
2019-04-20T04:53:40.849Z,9.33
2019-04-20T04:55:18.849Z,9.33
2019-04-20T04:56:40.483Z,9.34
2019-04-20T04:58:17.328Z,9.31
2019-04-20T04:59:53.109Z,9.26
2019-04-20T05:01:30.921Z,9.20
2019-04-20T05:03:30.531Z,9.13
2019-04-20T05:05:17.752Z,9.07
2019-04-20T05:06:48.553Z,9.08
2019-04-20T05:08:21.937Z,9.09
2019-04-20T05:09:50.690Z,9.15
2019-04-20T05:11:27.957Z,9.20
2019-04-20T05:13:04.989Z,9.36
2019-04-20T05:14:52.107Z,9.30
2019-04-20T05:16:38.489Z,9.40
2019-04-20T05:18:16.213Z,9.52
2019-04-20T05:19:52.982Z,9.66
2019-04-20T05:21:39.518Z,9.70
2019-04-20T05:23:28.015Z,9.85
2019-04-20T05:25:31.147Z,10.13
2019-04-20T05:27:32.041Z,10.43
2019-04-20T05:29:02.585Z,10.70
2019-04-20T05:30:34.457Z,10.90
2019-04-20T05:32:14.789Z,11.21
2019-04-20T05:34:17.061Z,11.44
2019-04-20T05:35:43.434Z,11.63
2019-04-20T05:37:29.727Z,11.80
2019-04-20T05:39:13.156Z,12.09
2019-04-20T05:40:46.151Z,12.35
2019-04-20T05:42:32.778Z,12.52
2019-04-20T05:44:22.879Z,12.71
2019-04-20T05:45:58.345Z,13.02
2019-04-20T05:47:46.751Z,13.29
2019-04-20T05:49:26.975Z,13.52
2019-04-20T05:51:01.992Z,13.77
2019-04-20T05:52:50.233Z,13.96
2019-04-20T05:54:26.202Z,14.18
2019-04-20T05:55:54.221Z,14.38
2019-04-20T05:57:36.272Z,14.58
2019-04-20T05:59:12.720Z,14.76
2019-04-20T06:00:55.465Z,14.91
2019-04-20T06:02:34.813Z,15.05
2019-04-20T06:04:02.574Z,15.22
2019-04-20T06:05:55.157Z,15.36
2019-04-20T06:07:26.840Z,15.52
2019-04-20T06:09:03.885Z,15.69
2019-04-20T06:10:38.341Z,15.81
2019-04-20T06:14:05.392Z,16.01
2019-04-20T06:16:05.634Z,16.08
2019-04-20T06:17:59.634Z,16.31
2019-04-20T06:19:42.208Z,16.46
2019-04-20T06:21:57.688Z,16.64
2019-04-20T06:25:53.119Z,16.96
2019-04-20T06:27:22.463Z,17.10
2019-04-20T06:28:58.234Z,17.15
2019-04-20T06:30:41.190Z,17.27
2019-04-20T06:32:33.368Z,17.31
2019-04-20T06:37:39.168Z,17.55
2019-04-20T06:39:22.537Z,17.61
2019-04-20T06:41:05.313Z,17.74
2019-04-20T06:42:39.678Z,17.73
2019-04-20T06:46:09.800Z,17.68
2019-04-20T06:47:55.608Z,17.89
2019-04-20T06:49:28.936Z,17.90
2019-04-20T06:50:57.064Z,18.24
2019-04-20T06:53:01.927Z,18.22
2019-04-20T06:54:57.723Z,18.30
2019-04-20T06:56:42.631Z,18.50
2019-04-20T06:58:47.914Z,18.63
2019-04-20T07:00:36.902Z,18.53
2019-04-20T07:02:02.976Z,18.67
2019-04-20T07:04:12.680Z,18.89
2019-04-20T07:05:26.973Z,19.00
2019-04-20T07:07:14.342Z,19.00
2019-04-20T07:08:58.626Z,19.06
2019-04-20T07:10:25.197Z,18.84
2019-04-20T07:12:03.723Z,18.94
2019-04-20T07:13:35.942Z,18.87
2019-04-20T07:15:30.262Z,19.21
2019-04-20T07:17:40.761Z,19.22
2019-04-20T07:19:16.809Z,19.38
2019-04-20T07:21:03.043Z,19.40
2019-04-20T07:22:49.273Z,19.49
2019-04-20T07:24:42.875Z,19.36
2019-04-20T07:26:16.992Z,19.57
2019-04-20T07:27:52.187Z,19.67
2019-04-20T07:29:25.918Z,19.84
2019-04-20T07:31:01.844Z,19.89
2019-04-20T07:32:44.088Z,19.52
2019-04-20T07:34:15.647Z,19.56
2019-04-20T07:35:52.373Z,19.88
2019-04-20T07:38:10.409Z,19.77
2019-04-20T07:39:29.037Z,19.89
2019-04-20T07:41:15.074Z,20.20
2019-04-20T07:42:46.746Z,20.42
2019-04-20T07:44:31.000Z,20.45
2019-04-20T07:46:12.017Z,20.43
2019-04-20T07:47:47.301Z,20.49
2019-04-20T07:49:27.195Z,20.54
2019-04-20T07:50:58.224Z,20.78
2019-04-20T07:52:33.992Z,21.20
2019-04-20T07:54:28.497Z,21.17
2019-04-20T07:55:58.134Z,21.16
2019-04-20T07:57:32.925Z,21.01
2019-04-20T07:58:57.038Z,20.98
2019-04-20T08:02:48.891Z,21.54
2019-04-20T08:04:22.629Z,21.68
2019-04-20T08:06:05.116Z,21.75
2019-04-20T08:07:45.148Z,22.13
2019-04-20T08:09:25.719Z,22.27
2019-04-20T08:11:12.284Z,22.21
2019-04-20T08:13:02.971Z,22.46
2019-04-20T08:14:42.395Z,22.74
2019-04-20T08:16:33.664Z,22.74
2019-04-20T08:17:56.789Z,22.91
2019-04-20T08:19:33.506Z,23.15
2019-04-20T08:21:19.874Z,23.06
2019-04-20T08:22:51.681Z,23.00
2019-04-20T08:24:28.810Z,23.11
2019-04-20T08:26:01.487Z,23.11
2019-04-20T08:27:44.751Z,23.48
2019-04-20T08:29:37.970Z,22.92
2019-04-20T08:31:41.679Z,22.95
2019-04-20T08:33:24.450Z,23.02
2019-04-20T08:35:05.226Z,23.45
2019-04-20T08:36:46.074Z,23.79
2019-04-20T08:38:56.252Z,24.09
2019-04-20T08:40:07.179Z,24.15
2019-04-20T08:41:31.604Z,23.86
2019-04-20T08:43:34.914Z,23.91
2019-04-20T08:45:03.855Z,24.37
2019-04-20T08:46:32.128Z,24.33
2019-04-20T08:48:19.187Z,24.12
2019-04-20T08:50:20.842Z,24.03
2019-04-20T08:52:01.849Z,24.31
2019-04-20T08:53:33.071Z,24.41
2019-04-20T08:55:04.737Z,24.64
2019-04-20T08:56:34.914Z,24.09
2019-04-20T08:58:00.953Z,24.30
2019-04-20T08:59:40.139Z,24.56
2019-04-20T09:01:21.631Z,24.82
2019-04-20T09:03:02.312Z,24.64
2019-04-20T09:04:45.014Z,24.98
2019-04-20T09:06:29.398Z,25.01
2019-04-20T09:08:02.427Z,24.69
2019-04-20T09:09:49.638Z,24.91
2019-04-20T09:11:23.238Z,25.06
2019-04-20T09:13:01.473Z,25.10
2019-04-20T09:14:22.071Z,25.08
2019-04-20T09:15:57.949Z,24.97
2019-04-20T09:17:47.488Z,24.71
2019-04-20T09:19:32.468Z,24.75
2019-04-20T09:21:06.775Z,25.16
2019-04-20T09:22:50.694Z,25.32
2019-04-20T09:24:36.902Z,25.45
2019-04-20T09:26:11.333Z,25.63
2019-04-20T09:27:48.781Z,25.42
2019-04-20T09:29:30.582Z,25.42
2019-04-20T09:31:18.177Z,25.14
2019-04-20T09:33:06.641Z,24.93
2019-04-20T09:34:46.712Z,25.10
2019-04-20T09:36:17.916Z,25.32
2019-04-20T09:38:07.295Z,25.39
2019-04-20T09:40:10.891Z,25.89
2019-04-20T09:41:59.731Z,25.97
2019-04-20T09:43:47.462Z,25.87
2019-04-20T09:45:37.366Z,26.18
2019-04-20T09:47:08.613Z,25.96
2019-04-20T09:48:53.601Z,25.90
2019-04-20T09:50:37.561Z,26.50
2019-04-20T09:52:11.267Z,26.09
2019-04-20T09:53:47.439Z,26.27
2019-04-20T09:55:24.651Z,26.39
2019-04-20T09:57:08.945Z,26.00
2019-04-20T09:58:47.203Z,26.05
2019-04-20T10:00:25.473Z,25.92
2019-04-20T10:01:50.829Z,26.07
2019-04-20T10:03:22.705Z,26.24
2019-04-20T10:04:59.757Z,25.86
2019-04-20T10:06:36.118Z,25.32
2019-04-20T10:08:13.538Z,25.41
2019-04-20T10:09:50.619Z,25.69
2019-04-20T10:11:29.908Z,26.12
2019-04-20T10:13:11.324Z,26.44
2019-04-20T10:14:46.984Z,26.51
2019-04-20T10:16:26.028Z,26.46
2019-04-20T10:18:07.889Z,26.60
2019-04-20T10:19:46.433Z,26.65
2019-04-20T10:21:23.604Z,26.74
2019-04-20T10:22:58.849Z,26.93
2019-04-20T10:24:34.750Z,26.74
2019-04-20T10:26:12.550Z,26.69
2019-04-20T10:27:49.475Z,26.47
2019-04-20T10:29:25.812Z,25.95
2019-04-20T10:31:02.277Z,26.13
2019-04-20T10:32:43.034Z,26.32
2019-04-20T10:34:15.814Z,26.73
2019-04-20T10:35:54.525Z,26.61
2019-04-20T10:37:33.647Z,26.86
2019-04-20T10:39:10.943Z,26.87
2019-04-20T10:40:59.734Z,26.95
2019-04-20T10:42:26.031Z,26.68
2019-04-20T10:44:07.125Z,26.51
2019-04-20T10:45:46.958Z,26.30
2019-04-20T10:47:27.307Z,26.63
2019-04-20T10:49:08.293Z,26.56
2019-04-20T10:50:45.099Z,26.87
2019-04-20T10:52:23.632Z,27.22
2019-04-20T10:54:18.667Z,26.94
2019-04-20T10:55:54.080Z,27.25
2019-04-20T10:57:31.631Z,26.95
2019-04-20T10:59:07.745Z,26.80
2019-04-20T11:00:49.881Z,26.62
2019-04-20T11:02:29.851Z,26.29
2019-04-20T11:04:08.501Z,26.50
2019-04-20T11:05:46.648Z,26.66
2019-04-20T11:07:24.662Z,26.52
2019-04-20T11:09:02.495Z,26.73
2019-04-20T11:10:55.554Z,26.51
2019-04-20T11:12:17.871Z,26.65
2019-04-20T11:13:53.340Z,26.21
2019-04-20T11:15:36.922Z,26.74
2019-04-20T11:17:14.073Z,26.78
2019-04-20T11:18:49.446Z,27.15
2019-04-20T11:20:33.204Z,27.42
2019-04-20T11:22:10.388Z,27.50
2019-04-20T11:23:46.602Z,27.72
2019-04-20T11:25:24.328Z,27.27
2019-04-20T11:27:05.277Z,27.42
2019-04-20T11:28:48.366Z,27.42
2019-04-20T11:30:26.213Z,27.53
2019-04-20T11:32:03.115Z,26.90
2019-04-20T11:33:42.536Z,27.00
2019-04-20T11:35:27.843Z,26.85
2019-04-20T11:37:03.466Z,27.37
2019-04-20T11:38:39.148Z,27.57
2019-04-20T11:40:17.534Z,26.91
2019-04-20T11:41:56.453Z,27.50
2019-04-20T11:43:33.531Z,27.03
2019-04-20T11:45:18.354Z,27.04
2019-04-20T11:46:56.670Z,26.62
2019-04-20T11:48:33.725Z,26.49
2019-04-20T11:50:11.416Z,26.30
2019-04-20T11:51:47.983Z,26.83
2019-04-20T11:53:26.564Z,26.48
2019-04-20T11:55:02.434Z,26.28
2019-04-20T11:56:41.368Z,26.62
2019-04-20T11:58:19.711Z,26.57
2019-04-20T11:59:59.117Z,26.70
2019-04-20T12:02:05.501Z,26.62
2019-04-20T12:03:52.954Z,26.55
2019-04-20T12:05:27.827Z,26.13
2019-04-20T12:07:01.528Z,26.32
2019-04-20T12:08:40.656Z,26.33
2019-04-20T12:10:27.906Z,26.33
2019-04-20T12:12:14.209Z,26.26
2019-04-20T12:13:42.637Z,25.95
2019-04-20T12:15:20.721Z,26.40
2019-04-20T12:16:57.570Z,26.24
2019-04-20T12:18:33.723Z,26.11
2019-04-20T12:20:10.093Z,26.37
2019-04-20T12:21:49.545Z,26.56
2019-04-20T12:23:24.727Z,26.63
2019-04-20T12:25:00.616Z,26.60
2019-04-20T12:26:36.518Z,26.46
2019-04-20T12:28:13.692Z,26.72
2019-04-20T12:29:50.181Z,26.86
2019-04-20T12:31:27.566Z,26.94
2019-04-20T12:33:05.635Z,26.49
2019-04-20T12:34:43.342Z,26.61
2019-04-20T12:36:22.318Z,26.60
2019-04-20T12:38:00.957Z,26.12
2019-04-20T12:39:35.823Z,25.85
2019-04-20T12:41:16.163Z,26.03
2019-04-20T12:42:51.321Z,26.07
2019-04-20T12:44:30.003Z,26.07
2019-04-20T12:46:07.688Z,26.31
2019-04-20T12:47:46.555Z,26.39
2019-04-20T12:49:23.433Z,26.40
2019-04-20T12:51:01.524Z,26.15
2019-04-20T12:52:44.136Z,25.96
2019-04-20T12:54:20.762Z,25.81
2019-04-20T12:56:02.280Z,25.94
2019-04-20T12:57:42.804Z,26.02
2019-04-20T12:59:23.473Z,26.18
2019-04-20T13:01:04.511Z,26.17
2019-04-20T13:02:45.359Z,26.56
2019-04-20T13:04:22.656Z,26.25
2019-04-20T13:06:01.819Z,26.12
2019-04-20T13:07:42.132Z,26.07
2019-04-20T13:09:18.664Z,25.91
2019-04-20T13:11:04.600Z,25.91
2019-04-20T13:12:52.264Z,25.88
2019-04-20T13:14:55.903Z,25.56
2019-04-20T13:16:34.918Z,25.83
2019-04-20T13:18:21.240Z,25.89
2019-04-20T13:19:57.452Z,25.86
2019-04-20T13:21:42.989Z,25.56
2019-04-20T13:23:20.841Z,25.63
2019-04-20T13:25:01.184Z,25.73
2019-04-20T13:26:58.694Z,25.59
2019-04-20T13:28:41.240Z,25.47
2019-04-20T13:30:32.138Z,25.74
2019-04-20T13:32:11.761Z,25.55
2019-04-20T13:33:47.491Z,25.54
2019-04-20T13:35:28.199Z,25.62
2019-04-20T13:37:06.523Z,25.58
2019-04-20T13:38:41.812Z,25.51
2019-04-20T13:40:21.847Z,25.73
2019-04-20T13:42:08.695Z,25.62
2019-04-20T13:43:37.657Z,25.46
2019-04-20T13:45:19.214Z,25.24
2019-04-20T13:46:54.798Z,25.27
2019-04-20T13:48:33.420Z,25.43
2019-04-20T13:50:13.127Z,25.10
2019-04-20T13:51:52.960Z,25.19
2019-04-20T13:53:29.884Z,25.38
2019-04-20T13:55:11.226Z,25.16
2019-04-20T13:56:51.078Z,25.13
2019-04-20T13:58:59.240Z,25.37
2019-04-20T14:01:08.493Z,25.59
2019-04-20T14:02:54.108Z,25.63
2019-04-20T14:04:39.015Z,25.68
2019-04-20T14:06:14.410Z,25.71
2019-04-20T14:07:53.514Z,25.86
2019-04-20T14:09:32.859Z,26.00
2019-04-20T14:11:15.621Z,25.96
2019-04-20T14:13:00.852Z,25.99
2019-04-20T14:14:31.026Z,25.46
2019-04-20T14:16:14.443Z,25.43
2019-04-20T14:17:51.030Z,25.35
2019-04-20T14:19:27.265Z,25.50
2019-04-20T14:21:02.568Z,25.46
2019-04-20T14:22:41.122Z,25.63
2019-04-20T14:24:17.078Z,25.65
2019-04-20T14:25:54.563Z,25.61
2019-04-20T14:27:33.390Z,25.50
2019-04-20T14:29:12.740Z,25.45
2019-04-20T14:30:51.953Z,25.48
2019-04-20T14:32:27.202Z,25.62
2019-04-20T14:34:02.697Z,25.73
2019-04-20T14:35:38.803Z,25.63
2019-04-20T14:37:17.864Z,25.77
2019-04-20T14:38:56.047Z,25.83
2019-04-20T14:40:34.507Z,25.95
2019-04-20T14:42:27.921Z,26.25
2019-04-20T14:44:05.893Z,26.39
2019-04-20T14:45:40.974Z,26.11
2019-04-20T14:47:16.145Z,25.95
2019-04-20T14:48:54.498Z,25.83
2019-04-20T14:50:31.926Z,25.74
2019-04-20T14:52:13.452Z,25.55
2019-04-20T14:53:51.504Z,24.92
2019-04-20T14:55:27.694Z,25.04
2019-04-20T14:57:03.432Z,25.39
2019-04-20T14:59:01.887Z,25.55
2019-04-20T15:01:00.544Z,25.60
2019-04-20T15:02:36.318Z,25.15
2019-04-20T15:04:18.607Z,24.88
2019-04-20T15:05:53.355Z,24.98
2019-04-20T15:07:32.785Z,24.88
2019-04-20T15:09:10.754Z,24.45
2019-04-20T15:10:46.981Z,24.21
2019-04-20T15:12:35.083Z,24.74
2019-04-20T15:14:02.436Z,24.91
2019-04-20T15:15:38.743Z,25.07
2019-04-20T15:17:19.449Z,25.03
2019-04-20T15:19:13.706Z,24.95
2019-04-20T15:20:55.526Z,24.64
2019-04-20T15:22:47.864Z,24.47
2019-04-20T15:24:27.384Z,24.00
2019-04-20T15:26:06.593Z,23.72
2019-04-20T15:27:44.727Z,23.87
2019-04-20T15:29:20.042Z,23.26
2019-04-20T15:31:00.386Z,22.95
2019-04-20T15:32:36.845Z,22.84
2019-04-20T15:34:17.083Z,22.69
2019-04-20T15:35:55.810Z,22.64
2019-04-20T15:37:31.518Z,22.76
2019-04-20T15:39:09.275Z,22.87
2019-04-20T15:40:44.868Z,22.93
2019-04-20T15:42:25.312Z,22.85
2019-04-20T15:43:59.861Z,22.63
2019-04-20T15:45:37.511Z,22.81
2019-04-20T15:47:22.350Z,22.88
2019-04-20T15:48:57.987Z,22.78
2019-04-20T15:50:41.365Z,22.39
2019-04-20T15:52:25.510Z,22.41
2019-04-20T15:53:55.636Z,22.55
2019-04-20T15:55:37.397Z,22.38
2019-04-20T15:57:14.577Z,22.18
2019-04-20T15:58:46.317Z,21.98
2019-04-20T16:00:22.580Z,22.01
2019-04-20T16:02:09.362Z,21.79
2019-04-20T16:03:59.338Z,21.88
2019-04-20T16:05:47.165Z,21.85
2019-04-20T16:07:25.560Z,21.95
2019-04-20T16:09:06.176Z,21.86
2019-04-20T16:10:41.237Z,21.78
2019-04-20T16:12:20.830Z,21.79
2019-04-20T16:13:58.192Z,21.84
2019-04-20T16:15:33.939Z,21.76
2019-04-20T16:17:12.293Z,21.84
2019-04-20T16:18:48.598Z,21.76
2019-04-20T16:20:26.816Z,21.73
2019-04-20T16:22:07.906Z,21.74
2019-04-20T16:23:46.348Z,21.74
2019-04-20T16:25:32.143Z,21.77
2019-04-20T16:27:17.915Z,21.65
2019-04-20T16:28:53.571Z,21.64
2019-04-20T16:30:29.751Z,21.44
2019-04-20T16:32:06.706Z,21.29
2019-04-20T16:33:46.347Z,21.27
2019-04-20T16:35:24.598Z,21.14
2019-04-20T16:37:02.202Z,21.18
2019-04-20T16:38:43.491Z,21.09
2019-04-20T16:40:19.920Z,21.03
2019-04-20T16:41:58.269Z,21.04
2019-04-20T16:43:40.307Z,21.03
2019-04-20T16:45:12.190Z,20.98
2019-04-20T16:46:52.154Z,20.92
2019-04-20T16:48:28.284Z,20.93
2019-04-20T16:50:04.714Z,20.83
2019-04-20T16:51:43.042Z,20.85
2019-04-20T16:53:20.315Z,20.79
2019-04-20T16:54:57.990Z,20.81
2019-04-20T16:56:33.302Z,20.74
2019-04-20T16:58:08.509Z,20.71
2019-04-20T16:59:50.258Z,20.66
2019-04-20T17:01:27.520Z,20.58
2019-04-20T17:03:02.859Z,20.52
2019-04-20T17:04:42.824Z,20.53
2019-04-20T17:06:18.331Z,20.48
2019-04-20T17:07:55.264Z,20.48
2019-04-20T17:09:32.111Z,20.47
2019-04-20T17:11:08.162Z,20.44
2019-04-20T17:12:48.077Z,20.36
2019-04-20T17:14:23.937Z,20.35
2019-04-20T17:15:59.674Z,20.34
2019-04-20T17:17:40.476Z,20.34
2019-04-20T17:19:15.631Z,20.35
2019-04-20T17:20:56.544Z,20.28
2019-04-20T17:22:33.137Z,20.20
2019-04-20T17:24:09.297Z,20.12
2019-04-20T17:25:47.990Z,20.12
2019-04-20T17:27:49.129Z,20.15
2019-04-20T17:29:28.270Z,20.14
2019-04-20T17:31:29.277Z,20.11
2019-04-20T17:33:08.543Z,20.13
2019-04-20T17:35:00.032Z,20.09
2019-04-20T17:36:27.750Z,19.99
2019-04-20T17:38:02.688Z,19.96
2019-04-20T17:40:04.156Z,19.90
2019-04-20T17:41:42.941Z,19.80
2019-04-20T17:43:10.582Z,19.74
2019-04-20T17:44:49.262Z,19.74
2019-04-20T17:46:40.539Z,19.66
2019-04-20T17:48:23.076Z,19.65
2019-04-20T17:50:17.411Z,19.56
2019-04-20T17:51:58.151Z,19.51
2019-04-20T17:53:41.720Z,19.46
2019-04-20T17:55:26.483Z,19.33
2019-04-20T17:56:54.383Z,19.27
2019-04-20T17:58:35.030Z,19.17
2019-04-20T18:00:20.702Z,19.06
2019-04-20T18:02:25.486Z,19.01
2019-04-20T18:04:31.074Z,18.84
2019-04-20T18:06:03.252Z,18.73
2019-04-20T18:07:41.097Z,18.68
2019-04-20T18:09:17.913Z,18.59
2019-04-20T18:10:50.644Z,18.53
2019-04-20T18:12:26.056Z,18.46
2019-04-20T18:14:03.392Z,18.42
2019-04-20T18:15:48.777Z,18.36
2019-04-20T18:17:55.066Z,18.30
2019-04-20T18:19:29.998Z,18.22
2019-04-20T18:21:35.873Z,18.10
2019-04-20T18:23:12.792Z,18.08
2019-04-20T18:25:16.352Z,17.96
2019-04-20T18:26:47.903Z,17.77
2019-04-20T18:28:20.942Z,17.65
2019-04-20T18:30:04.049Z,17.75
2019-04-20T18:31:39.621Z,17.68
2019-04-20T18:33:18.894Z,17.61
2019-04-20T18:35:08.419Z,17.56
2019-04-20T18:36:49.166Z,17.51
2019-04-20T18:38:30.510Z,17.40
2019-04-20T18:40:14.373Z,17.39
2019-04-20T18:42:03.114Z,17.32
2019-04-20T18:43:43.881Z,17.27
2019-04-20T18:45:58.311Z,17.21
2019-04-20T18:47:43.975Z,17.16
2019-04-20T18:49:23.863Z,17.09
2019-04-20T18:50:50.752Z,17.06
2019-04-20T18:52:27.661Z,17.08
2019-04-20T18:54:11.457Z,16.94
2019-04-20T18:55:55.118Z,16.89
2019-04-20T18:57:32.728Z,16.86
2019-04-20T18:59:19.026Z,16.82
2019-04-20T19:00:55.371Z,16.74
2019-04-20T19:02:38.316Z,16.80
2019-04-20T19:04:10.154Z,16.74
2019-04-20T19:05:45.886Z,16.72
2019-04-20T19:07:21.797Z,16.67
2019-04-20T19:08:57.226Z,16.67
2019-04-20T19:10:36.847Z,16.63
2019-04-20T19:12:14.624Z,16.69
2019-04-20T19:14:12.301Z,16.68
2019-04-20T19:16:07.901Z,16.62
2019-04-20T19:18:08.179Z,16.58
2019-04-20T19:19:50.943Z,16.59
2019-04-20T19:21:27.040Z,16.52
2019-04-20T19:23:02.193Z,16.49
2019-04-20T19:24:43.656Z,16.39
2019-04-20T19:26:28.531Z,16.41
2019-04-20T19:28:05.527Z,16.37
2019-04-20T19:29:55.377Z,16.35
2019-04-20T19:31:41.360Z,16.28
2019-04-20T19:33:18.998Z,16.25
2019-04-20T19:34:54.925Z,16.26
2019-04-20T19:36:31.890Z,16.13
2019-04-20T19:38:09.352Z,16.22
2019-04-20T19:39:53.222Z,16.11
2019-04-20T19:41:32.001Z,16.16
2019-04-20T19:43:13.716Z,16.11
2019-04-20T19:44:56.588Z,16.12
2019-04-20T19:48:17.742Z,16.03
2019-04-20T19:49:56.497Z,16.03
2019-04-20T19:51:46.813Z,16.07
2019-04-20T19:53:26.502Z,16.06
2019-04-20T19:55:02.436Z,16.01
2019-04-20T19:56:38.764Z,16.00
2019-04-20T19:58:10.350Z,15.95
2019-04-20T19:59:39.935Z,15.93
2019-04-20T20:01:11.566Z,15.85
2019-04-20T20:03:10.052Z,15.85
2019-04-20T20:05:06.814Z,15.84
2019-04-20T20:06:47.168Z,15.79
2019-04-20T20:08:24.474Z,15.74
2019-04-20T20:10:04.246Z,15.62
2019-04-20T20:11:40.453Z,15.60
2019-04-20T20:13:13.282Z,15.52
2019-04-20T20:14:53.070Z,15.54
2019-04-20T20:16:51.780Z,15.45
2019-04-20T20:18:24.638Z,15.44
2019-04-20T20:20:14.719Z,15.40
2019-04-20T20:21:51.423Z,15.36
2019-04-20T20:23:20.257Z,15.36
2019-04-20T20:24:59.066Z,15.32
2019-04-20T20:26:43.768Z,15.29
2019-04-20T20:28:30.761Z,15.30
2019-04-20T20:30:08.225Z,15.27
2019-04-20T20:31:54.108Z,15.29
2019-04-20T20:33:36.363Z,15.25
2019-04-20T20:35:05.550Z,15.23
2019-04-20T20:36:54.952Z,15.15
2019-04-20T20:38:37.120Z,15.14
2019-04-20T20:40:15.996Z,15.06
2019-04-20T20:42:00.497Z,15.05
2019-04-20T20:43:44.837Z,15.00
2019-04-20T20:45:28.940Z,14.98
2019-04-20T20:47:19.205Z,15.00
2019-04-20T20:49:02.443Z,14.96
2019-04-20T20:50:33.730Z,14.91
2019-04-20T20:52:14.562Z,14.85
2019-04-20T20:53:52.242Z,14.95
2019-04-20T20:55:30.870Z,14.86
2019-04-20T20:57:26.602Z,14.84
2019-04-20T20:59:07.471Z,14.79
2019-04-20T21:00:58.555Z,14.77
2019-04-20T21:02:40.988Z,14.76
2019-04-20T21:04:10.079Z,14.71
2019-04-20T21:05:47.359Z,14.78
2019-04-20T21:07:22.624Z,14.81
2019-04-20T21:09:01.334Z,14.81
2019-04-20T21:10:39.905Z,14.82
2019-04-20T21:12:16.267Z,14.76
2019-04-20T21:13:52.808Z,14.68
2019-04-20T21:15:29.889Z,14.63
2019-04-20T21:17:13.151Z,14.60
2019-04-20T21:19:03.210Z,14.62
2019-04-20T21:20:41.086Z,14.61
2019-04-20T21:22:06.684Z,14.61
2019-04-20T21:23:45.548Z,14.56
2019-04-20T21:25:21.055Z,14.54
2019-04-20T21:27:00.649Z,14.54
2019-04-20T21:28:36.093Z,14.52
2019-04-20T21:30:30.855Z,14.55
2019-04-20T21:32:05.180Z,14.49
2019-04-20T21:33:40.965Z,14.48
2019-04-20T21:35:17.699Z,14.39
2019-04-20T21:37:01.990Z,14.37
2019-04-20T21:38:39.331Z,14.35
2019-04-20T21:40:22.928Z,14.40
2019-04-20T21:41:58.509Z,14.38
2019-04-20T21:43:33.869Z,14.29
2019-04-20T21:45:25.544Z,14.28
2019-04-20T21:46:59.729Z,14.19
2019-04-20T21:48:57.116Z,14.16
2019-04-20T21:50:29.777Z,14.16
2019-04-20T21:52:01.617Z,14.17
2019-04-20T21:53:37.123Z,14.09
2019-04-20T21:55:25.902Z,14.08
2019-04-20T21:57:09.489Z,14.05
2019-04-20T21:58:50.460Z,13.96
2019-04-20T22:00:43.265Z,13.92
2019-04-20T22:02:24.447Z,13.82
2019-04-20T22:03:56.264Z,13.73
2019-04-20T22:05:32.544Z,13.74
2019-04-20T22:07:10.348Z,13.66